Terminal Aerodrome Forecast
Issued by NWS

Home | Current Version | Previous Version | Text Only | Print | Product List | Glossary On
Versions: 1 2 3 4 5 6 7 8 9 10 11 12 13 14
000
FTUS45 KABQ 242300
TAFGUP
TAF
KGUP 242321Z 2500/2524 25012KT P6SM VCSH SCT080 BKN140
     FM250200 VRB05KT P6SM SCT150
     FM251900 24010G17KT P6SM SCT100=

USA.gov is the U.S. government's official web portal to all federal, state and local government web resources and services.